createdAt,value
2018-03-28T00:00:21.643Z,19.4
2018-03-28T00:01:10.940Z,19.4
2018-03-28T00:02:01.740Z,19.4
2018-03-28T00:02:51.233Z,19.4
2018-03-28T00:03:41.563Z,19.4
2018-03-28T00:04:31.567Z,19.4
2018-03-28T00:05:21.497Z,19.4
2018-03-28T00:06:11.573Z,19.4
2018-03-28T00:07:01.510Z,19.4
2018-03-28T00:07:51.594Z,19.4
2018-03-28T00:08:41.939Z,19.4
2018-03-28T00:09:32.097Z,19.4
2018-03-28T00:10:22.734Z,19.4
2018-03-28T00:11:12.135Z,19.4
2018-03-28T00:12:02.460Z,19.4
2018-03-28T00:12:51.995Z,19.4
2018-03-28T00:13:43.175Z,19.4
2018-03-28T00:14:32.451Z,19.4
2018-03-28T00:15:22.672Z,19.4
2018-03-28T00:16:13.073Z,19.4
2018-03-28T00:17:03.425Z,19.4
2018-03-28T00:17:52.279Z,19.4
2018-03-28T00:18:42.952Z,19.4
2018-03-28T00:19:32.992Z,19.4
2018-03-28T00:20:22.848Z,19.4
2018-03-28T00:21:13.408Z,19.4
2018-03-28T00:22:02.639Z,19.4
2018-03-28T00:22:53.211Z,19.4
2018-03-28T00:23:42.789Z,19.4
2018-03-28T00:24:33.128Z,19.4
2018-03-28T00:25:23.978Z,19.4
2018-03-28T00:26:13.993Z,19.4
2018-03-28T00:27:03.768Z,19.4
2018-03-28T00:27:53.840Z,19.4
2018-03-28T00:28:44.161Z,19.4
2018-03-28T00:29:33.989Z,19.4
2018-03-28T00:30:24.295Z,19.4
2018-03-28T00:31:13.820Z,19.4
2018-03-28T00:32:02.854Z,19.4
2018-03-28T00:32:53.951Z,19.4
2018-03-28T00:33:44.245Z,19.4
2018-03-28T00:34:33.427Z,19.4
2018-03-28T00:35:24.405Z,19.4
2018-03-28T00:36:13.566Z,19.4
2018-03-28T00:37:04.195Z,19.4
2018-03-28T00:37:53.784Z,19.4
2018-03-28T00:38:44.208Z,19.4
2018-03-28T00:39:34.087Z,19.4
2018-03-28T00:40:24.513Z,19.4
2018-03-28T00:41:14.388Z,19.4
2018-03-28T00:42:04.356Z,19.4
2018-03-28T00:42:54.380Z,19.4
2018-03-28T00:43:44.756Z,19.4
2018-03-28T00:44:35.029Z,19.4
2018-03-28T00:45:24.772Z,19.4
2018-03-28T00:46:14.405Z,19.4
2018-03-28T00:47:04.397Z,19.4
2018-03-28T00:47:54.596Z,19.4
2018-03-28T00:48:44.741Z,19.4
2018-03-28T00:49:34.785Z,19.3
2018-03-28T00:50:25.023Z,19.4
2018-03-28T00:51:15.190Z,19.4
2018-03-28T00:52:05.377Z,19.4
2018-03-28T00:52:55.399Z,19.3
2018-03-28T00:53:45.079Z,19.4
2018-03-28T00:54:35.432Z,19.4
2018-03-28T00:55:26.050Z,19.4
2018-03-28T00:56:14.878Z,19.4
2018-03-28T00:57:05.601Z,19.3
2018-03-28T00:57:55.713Z,19.3
2018-03-28T00:58:46.265Z,19.4
2018-03-28T00:59:36.042Z,19.4
2018-03-28T01:00:25.547Z,19.4
2018-03-28T01:01:15.583Z,19.4
2018-03-28T01:02:05.261Z,19.4
2018-03-28T01:02:55.984Z,19.4
2018-03-28T01:03:45.266Z,19.4
2018-03-28T01:04:35.915Z,19.4
2018-03-28T01:05:26.463Z,19.4
2018-03-28T01:06:16.539Z,19.3
2018-03-28T01:07:06.274Z,19.4
2018-03-28T01:07:56.421Z,19.4
2018-03-28T01:08:46.202Z,19.4
2018-03-28T01:09:36.157Z,19.4
2018-03-28T01:10:26.303Z,19.4
2018-03-28T01:11:16.624Z,19.3
2018-03-28T01:12:06.339Z,19.4
2018-03-28T01:12:56.696Z,19.4
2018-03-28T01:13:46.447Z,19.4
2018-03-28T01:14:36.209Z,19.3
2018-03-28T01:15:26.568Z,19.4
2018-03-28T01:16:17.217Z,19.3
2018-03-28T01:17:06.460Z,19.3
2018-03-28T01:17:56.551Z,19.3
2018-03-28T01:18:46.693Z,19.3
2018-03-28T01:19:36.466Z,19.4
2018-03-28T01:20:27.036Z,19.3
2018-03-28T01:21:17.268Z,19.3
2018-03-28T01:22:07.047Z,19.3
2018-03-28T01:22:57.200Z,19.3
2018-03-28T01:23:47.529Z,19.3
2018-03-28T01:24:37.495Z,19.3
2018-03-28T01:25:26.783Z,19.4
2018-03-28T01:26:17.617Z,19.4
2018-03-28T01:27:06.975Z,19.4
2018-03-28T01:27:57.144Z,19.3
2018-03-28T01:28:47.588Z,19.3
2018-03-28T01:29:38.141Z,19.3
2018-03-28T01:30:27.620Z,19.3
2018-03-28T01:31:17.971Z,19.3
2018-03-28T01:32:08.060Z,19.4
2018-03-28T01:32:57.887Z,19.3
2018-03-28T01:33:48.415Z,19.3
2018-03-28T01:34:37.612Z,19.3
2018-03-28T01:35:28.342Z,19.3
2018-03-28T01:36:18.041Z,19.3
2018-03-28T01:37:08.387Z,19.4
2018-03-28T01:37:58.621Z,19.3
2018-03-28T01:38:48.303Z,19.3
2018-03-28T01:39:38.564Z,19.3
2018-03-28T01:40:28.009Z,19.3
2018-03-28T01:41:17.974Z,19.4
2018-03-28T01:42:08.731Z,19.4
2018-03-28T01:42:58.207Z,19.4
2018-03-28T01:43:48.437Z,19.3
2018-03-28T01:44:39.206Z,19.4
2018-03-28T01:45:29.052Z,19.4
2018-03-28T01:46:18.795Z,19.4
2018-03-28T01:47:08.389Z,19.4
2018-03-28T01:47:59.144Z,19.4
2018-03-28T01:48:49.188Z,19.4
2018-03-28T01:49:39.019Z,19.4
2018-03-28T01:50:29.104Z,19.4
2018-03-28T01:51:19.143Z,19.4
2018-03-28T01:52:09.433Z,19.4
2018-03-28T01:52:59.529Z,19.4
2018-03-28T01:53:49.356Z,19.4
2018-03-28T01:54:39.572Z,19.4
2018-03-28T01:55:29.441Z,19.4
2018-03-28T01:56:19.228Z,19.4
2018-03-28T01:57:09.851Z,19.4
2018-03-28T01:57:59.138Z,19.4
2018-03-28T01:58:49.666Z,19.4
2018-03-28T01:59:39.646Z,19.4
2018-03-28T02:00:30.586Z,19.4
2018-03-28T02:01:19.922Z,19.4
2018-03-28T02:02:09.933Z,19.4
2018-03-28T02:03:00.483Z,19.4
2018-03-28T02:03:50.812Z,19.4
2018-03-28T02:04:39.597Z,19.4
2018-03-28T02:05:30.431Z,19.4
2018-03-28T02:06:20.422Z,19.5
2018-03-28T02:07:09.585Z,19.4
2018-03-28T02:08:00.547Z,19.5
2018-03-28T02:08:50.286Z,19.5
2018-03-28T02:09:40.628Z,19.4
2018-03-28T02:10:30.494Z,19.5
2018-03-28T02:11:20.164Z,19.4
2018-03-28T02:12:10.029Z,19.4
2018-03-28T02:13:00.370Z,19.5
2018-03-28T02:13:50.820Z,19.5
2018-03-28T02:14:41.067Z,19.5
2018-03-28T02:15:30.719Z,19.5
2018-03-28T02:16:20.896Z,19.5
2018-03-28T02:17:11.225Z,19.5
2018-03-28T02:18:01.487Z,19.5
2018-03-28T02:18:51.051Z,19.5
2018-03-28T02:19:40.839Z,19.5
2018-03-28T02:20:30.818Z,19.5
2018-03-28T02:21:21.049Z,19.5
2018-03-28T02:22:11.779Z,19.5
2018-03-28T02:23:01.848Z,19.5
2018-03-28T02:23:51.736Z,19.5
2018-03-28T02:24:41.286Z,19.6
2018-03-28T02:25:31.994Z,19.5
2018-03-28T02:26:22.375Z,19.5
2018-03-28T02:27:12.101Z,19.6
2018-03-28T02:28:01.311Z,19.6
2018-03-28T02:28:51.767Z,19.6
2018-03-28T02:29:41.751Z,19.6
2018-03-28T02:30:32.383Z,19.5
2018-03-28T02:31:22.445Z,19.6
2018-03-28T02:32:11.793Z,19.6
2018-03-28T02:33:02.262Z,19.6
2018-03-28T02:33:52.054Z,19.6
2018-03-28T02:34:42.203Z,19.6
2018-03-28T02:35:32.136Z,19.6
2018-03-28T02:36:23.144Z,19.6
2018-03-28T02:37:11.863Z,19.6
2018-03-28T02:38:02.619Z,19.6
2018-03-28T02:38:52.703Z,19.6
2018-03-28T02:39:42.030Z,19.6
2018-03-28T02:40:32.778Z,19.6
2018-03-28T02:41:22.153Z,19.6
2018-03-28T02:42:12.617Z,19.6
2018-03-28T02:43:02.956Z,19.5
2018-03-28T02:43:53.026Z,19.6
2018-03-28T02:44:43.184Z,19.6
2018-03-28T02:45:32.254Z,19.6
2018-03-28T02:46:23.203Z,19.6
2018-03-28T02:47:13.053Z,19.6
2018-03-28T02:48:03.609Z,19.6
2018-03-28T02:48:53.177Z,19.6
2018-03-28T02:49:43.670Z,19.6
2018-03-28T02:50:32.689Z,19.6
2018-03-28T02:51:23.802Z,19.6
2018-03-28T02:52:13.590Z,19.6
2018-03-28T02:53:03.078Z,19.6
2018-03-28T02:53:53.626Z,19.6
2018-03-28T02:54:43.783Z,19.6
2018-03-28T02:55:33.629Z,19.6
2018-03-28T02:56:23.115Z,19.6
2018-03-28T02:57:14.041Z,19.6
2018-03-28T02:58:03.808Z,19.6
2018-03-28T02:58:54.041Z,19.6
2018-03-28T02:59:43.622Z,19.6
2018-03-28T03:00:33.992Z,19.6
2018-03-28T03:01:23.363Z,19.6
2018-03-28T03:02:14.568Z,19.6
2018-03-28T03:03:04.360Z,19.6
2018-03-28T03:03:54.182Z,19.6
2018-03-28T03:04:44.260Z,19.6
2018-03-28T03:05:34.318Z,19.6
2018-03-28T03:06:24.622Z,19.6
2018-03-28T03:07:14.649Z,19.6
2018-03-28T03:08:04.417Z,19.6
2018-03-28T03:08:54.482Z,19.6
2018-03-28T03:09:45.384Z,19.6
2018-03-28T03:10:35.157Z,19.6
2018-03-28T03:11:25.464Z,19.6
2018-03-28T03:12:15.261Z,19.6
2018-03-28T03:13:05.581Z,19.6
2018-03-28T03:13:55.679Z,19.6
2018-03-28T03:14:45.716Z,19.6
2018-03-28T03:15:35.549Z,19.6
2018-03-28T03:16:25.037Z,19.6
2018-03-28T03:17:15.598Z,19.6
2018-03-28T03:18:05.935Z,19.6
2018-03-28T03:18:55.414Z,19.6
2018-03-28T03:19:46.068Z,19.6
2018-03-28T03:20:36.109Z,19.6
2018-03-28T03:21:26.209Z,19.6
2018-03-28T03:22:15.669Z,19.6
2018-03-28T03:23:06.325Z,19.6
2018-03-28T03:23:56.336Z,19.6
2018-03-28T03:24:46.124Z,19.6
2018-03-28T03:25:36.361Z,19.6
2018-03-28T03:26:26.517Z,19.6
2018-03-28T03:27:16.283Z,19.6
2018-03-28T03:28:06.656Z,19.7
2018-03-28T03:28:56.410Z,19.8
2018-03-28T03:29:46.449Z,19.8
2018-03-28T03:30:36.252Z,19.8
2018-03-28T03:31:26.321Z,19.8
2018-03-28T03:32:16.790Z,19.8
2018-03-28T03:33:06.985Z,19.8
2018-03-28T03:33:57.046Z,19.7
2018-03-28T03:34:46.154Z,19.7
2018-03-28T03:35:37.184Z,19.7
2018-03-28T03:36:26.946Z,19.7
2018-03-28T03:37:16.503Z,19.7
2018-03-28T03:38:06.953Z,19.7
2018-03-28T03:38:56.530Z,19.7
2018-03-28T03:39:46.916Z,19.7
2018-03-28T03:40:36.923Z,19.7
2018-03-28T03:41:26.520Z,19.7
2018-03-28T03:42:16.852Z,19.7
2018-03-28T03:43:07.160Z,19.6
2018-03-28T03:43:56.970Z,19.6
2018-03-28T03:44:47.251Z,19.7
2018-03-28T03:45:37.565Z,19.7
2018-03-28T03:46:26.768Z,19.7
2018-03-28T03:47:17.134Z,19.7
2018-03-28T03:48:07.445Z,19.6
2018-03-28T03:48:57.406Z,19.6
2018-03-28T03:49:47.464Z,19.6
2018-03-28T03:50:37.350Z,19.7
2018-03-28T03:51:27.229Z,19.6
2018-03-28T03:52:17.889Z,19.7
2018-03-28T03:53:07.523Z,19.6
2018-03-28T03:53:57.869Z,19.6
2018-03-28T03:54:47.336Z,19.7
2018-03-28T03:55:37.861Z,19.7
2018-03-28T03:56:27.764Z,19.6
2018-03-28T03:57:17.807Z,19.6
2018-03-28T03:58:07.871Z,19.6
2018-03-28T03:58:58.324Z,19.6
2018-03-28T03:59:47.791Z,19.6
2018-03-28T04:00:38.218Z,19.7
2018-03-28T04:01:28.385Z,19.6
2018-03-28T04:02:17.979Z,19.6
2018-03-28T04:03:07.726Z,19.6
2018-03-28T04:03:58.730Z,19.6
2018-03-28T04:04:48.701Z,19.6
2018-03-28T04:05:37.483Z,19.6
2018-03-28T04:06:29.106Z,19.6
2018-03-28T04:07:19.106Z,19.6
2018-03-28T04:08:09.160Z,19.6
2018-03-28T04:08:58.422Z,19.6
2018-03-28T04:09:48.855Z,19.6
2018-03-28T04:10:38.331Z,19.6
2018-03-28T04:11:29.085Z,19.6
2018-03-28T04:12:19.721Z,19.6
2018-03-28T04:13:09.185Z,19.6
2018-03-28T04:13:59.245Z,19.6
2018-03-28T04:14:49.030Z,19.6
2018-03-28T04:15:39.085Z,19.6
2018-03-28T04:16:29.232Z,19.6
2018-03-28T04:17:19.758Z,19.6
2018-03-28T04:18:10.098Z,19.6
2018-03-28T04:19:00.145Z,19.6
2018-03-28T04:19:50.211Z,19.6
2018-03-28T04:20:40.013Z,19.6
2018-03-28T04:21:30.312Z,19.6
2018-03-28T04:22:20.115Z,19.6
2018-03-28T04:23:10.454Z,19.6
2018-03-28T04:23:59.377Z,19.6
2018-03-28T04:24:49.317Z,19.6
2018-03-28T04:25:39.461Z,19.7
2018-03-28T04:26:29.932Z,19.6
2018-03-28T04:27:20.491Z,19.6
2018-03-28T04:28:09.976Z,19.7
2018-03-28T04:29:00.614Z,19.7
2018-03-28T04:29:50.526Z,19.6
2018-03-28T04:30:41.015Z,19.7
2018-03-28T04:31:30.449Z,19.7
2018-03-28T04:32:19.623Z,19.6
2018-03-28T04:33:10.432Z,19.6
2018-03-28T04:34:00.421Z,19.6
2018-03-28T04:34:50.498Z,19.7
2018-03-28T04:35:40.267Z,19.7
2018-03-28T04:36:30.236Z,19.7
2018-03-28T04:37:20.448Z,19.6
2018-03-28T04:38:10.069Z,19.7
2018-03-28T04:39:00.304Z,19.7
2018-03-28T04:39:50.788Z,19.6
2018-03-28T04:40:40.212Z,19.6
2018-03-28T04:41:30.970Z,19.7
2018-03-28T04:42:20.935Z,19.6
2018-03-28T04:43:11.314Z,19.6
2018-03-28T04:44:01.073Z,19.6
2018-03-28T04:44:51.117Z,19.6
2018-03-28T04:45:41.559Z,19.6
2018-03-28T04:46:31.110Z,19.6
2018-03-28T04:47:21.480Z,19.6
2018-03-28T04:48:11.434Z,19.6
2018-03-28T04:49:01.191Z,19.6
2018-03-28T04:49:51.804Z,19.6
2018-03-28T04:50:40.603Z,19.6
2018-03-28T04:51:31.866Z,19.6
2018-03-28T04:52:21.704Z,19.6
2018-03-28T04:53:12.287Z,19.6
2018-03-28T04:54:01.330Z,19.6
2018-03-28T04:54:52.197Z,19.7
2018-03-28T04:55:42.411Z,19.7
2018-03-28T04:56:32.476Z,19.6
2018-03-28T04:57:22.252Z,19.6
2018-03-28T04:58:11.920Z,19.6
2018-03-28T04:59:02.082Z,19.6
2018-03-28T04:59:52.431Z,19.6
2018-03-28T05:00:42.289Z,19.6
2018-03-28T05:01:32.558Z,19.6
2018-03-28T05:02:22.604Z,19.6
2018-03-28T05:03:12.378Z,19.6
2018-03-28T05:04:02.291Z,19.6
2018-03-28T05:04:52.692Z,19.6
2018-03-28T05:05:43.020Z,19.6
2018-03-28T05:06:32.903Z,19.7
2018-03-28T05:07:22.652Z,19.6
2018-03-28T05:08:12.800Z,19.6
2018-03-28T05:09:02.498Z,19.6
2018-03-28T05:09:53.205Z,19.6
2018-03-28T05:10:43.063Z,19.6
2018-03-28T05:11:32.730Z,19.6
2018-03-28T05:12:22.899Z,19.6
2018-03-28T05:13:13.345Z,19.6
2018-03-28T05:14:03.438Z,19.6
2018-03-28T05:14:53.760Z,19.6
2018-03-28T05:15:43.852Z,19.6
2018-03-28T05:16:33.877Z,19.6
2018-03-28T05:17:22.850Z,19.6
2018-03-28T05:18:12.810Z,19.7
2018-03-28T05:19:03.189Z,19.6
2018-03-28T05:19:53.845Z,19.6
2018-03-28T05:20:43.862Z,19.6
2018-03-28T05:21:33.649Z,19.6
2018-03-28T05:22:24.278Z,19.6
2018-03-28T05:23:14.031Z,19.6
2018-03-28T05:24:04.657Z,19.6
2018-03-28T05:24:54.438Z,19.6
2018-03-28T05:25:44.490Z,19.6
2018-03-28T05:26:34.533Z,19.6
2018-03-28T05:27:24.940Z,19.6
2018-03-28T05:28:14.654Z,19.6
2018-03-28T05:29:04.992Z,19.6
2018-03-28T05:29:54.226Z,19.6
2018-03-28T05:30:44.828Z,19.6
2018-03-28T05:31:35.181Z,19.6
2018-03-28T05:32:25.239Z,19.6
2018-03-28T05:33:15.039Z,19.6
2018-03-28T05:34:05.083Z,19.6
2018-03-28T05:34:55.446Z,19.6
2018-03-28T05:35:45.178Z,19.6
2018-03-28T05:36:35.247Z,19.6
2018-03-28T05:37:25.569Z,19.6
2018-03-28T05:38:15.713Z,19.6
2018-03-28T05:39:05.410Z,19.7
2018-03-28T05:39:55.275Z,19.7
2018-03-28T05:40:45.525Z,19.7
2018-03-28T05:41:35.030Z,19.6
2018-03-28T05:42:24.686Z,19.6
2018-03-28T05:43:15.514Z,19.6
2018-03-28T05:44:05.801Z,19.7
2018-03-28T05:44:54.847Z,19.7
2018-03-28T05:45:46.209Z,19.7
2018-03-28T05:46:35.460Z,19.7
2018-03-28T05:47:25.228Z,19.6
2018-03-28T05:48:15.880Z,19.6
2018-03-28T05:49:05.838Z,19.6
2018-03-28T05:49:55.898Z,19.7
2018-03-28T05:50:45.669Z,19.7
2018-03-28T05:51:36.097Z,19.7
2018-03-28T05:52:26.055Z,19.7
2018-03-28T05:53:15.645Z,19.7
2018-03-28T05:54:06.345Z,19.7
2018-03-28T05:54:56.025Z,19.7
2018-03-28T05:55:46.593Z,19.7
2018-03-28T05:56:35.667Z,19.7
2018-03-28T05:57:26.210Z,19.7
2018-03-28T05:58:16.749Z,19.7
2018-03-28T05:59:06.332Z,19.7
2018-03-28T05:59:56.231Z,19.7
2018-03-28T06:00:45.964Z,19.7
2018-03-28T06:01:36.413Z,19.7
2018-03-28T06:02:26.571Z,19.7
2018-03-28T06:03:16.634Z,19.7
2018-03-28T06:04:06.077Z,19.7
2018-03-28T06:04:57.054Z,19.7
2018-03-28T06:05:47.591Z,19.7
2018-03-28T06:06:37.320Z,19.7
2018-03-28T06:07:27.923Z,19.7
2018-03-28T06:08:17.495Z,19.7
2018-03-28T06:09:07.246Z,19.7
2018-03-28T06:09:57.839Z,19.7
2018-03-28T06:10:47.878Z,19.7
2018-03-28T06:11:37.926Z,19.7
2018-03-28T06:12:27.717Z,19.7
2018-03-28T06:13:18.080Z,19.7
2018-03-28T06:14:07.575Z,19.7
2018-03-28T06:14:57.708Z,19.7
2018-03-28T06:15:47.714Z,19.7
2018-03-28T06:16:38.307Z,19.7
2018-03-28T06:17:28.356Z,19.7
2018-03-28T06:18:18.491Z,19.7
2018-03-28T06:19:08.203Z,19.7
2018-03-28T06:19:58.300Z,19.7
2018-03-28T06:20:48.600Z,19.7
2018-03-28T06:21:38.470Z,19.7
2018-03-28T06:22:28.153Z,19.7
2018-03-28T06:23:18.773Z,19.7
2018-03-28T06:24:09.267Z,19.7
2018-03-28T06:24:58.645Z,19.7
2018-03-28T06:25:48.661Z,19.7
2018-03-28T06:26:38.701Z,19.7
2018-03-28T06:27:29.035Z,19.7
2018-03-28T06:28:19.121Z,19.7
2018-03-28T06:29:08.869Z,19.7
2018-03-28T06:29:58.668Z,19.7
2018-03-28T06:30:49.301Z,19.7
2018-03-28T06:31:39.363Z,19.7
2018-03-28T06:32:29.141Z,19.7
2018-03-28T06:33:19.175Z,19.7
2018-03-28T06:34:08.712Z,19.7
2018-03-28T06:34:59.284Z,19.6
2018-03-28T06:35:48.790Z,19.6
2018-03-28T06:36:39.422Z,19.7
2018-03-28T06:37:28.715Z,19.7
2018-03-28T06:38:19.550Z,19.7
2018-03-28T06:39:08.925Z,19.6
2018-03-28T06:39:59.227Z,19.7
2018-03-28T06:40:49.699Z,19.7
2018-03-28T06:41:39.871Z,19.7
2018-03-28T06:42:29.635Z,19.6
2018-03-28T06:43:19.112Z,19.7
2018-03-28T06:44:09.739Z,19.6
2018-03-28T06:44:59.130Z,19.6
2018-03-28T06:45:49.860Z,19.6
2018-03-28T06:46:39.518Z,19.7
2018-03-28T06:47:29.892Z,19.6
2018-03-28T06:48:19.656Z,19.6
2018-03-28T06:49:10.001Z,19.7
2018-03-28T06:49:59.661Z,19.6
2018-03-28T06:50:50.427Z,19.6
2018-03-28T06:51:40.468Z,19.6
2018-03-28T06:52:30.568Z,19.6
2018-03-28T06:53:20.303Z,19.6
2018-03-28T06:54:09.614Z,19.6
2018-03-28T06:55:00.051Z,19.6
2018-03-28T06:55:50.771Z,19.6
2018-03-28T06:56:40.606Z,19.6
2018-03-28T06:57:30.878Z,19.6
2018-03-28T06:58:20.353Z,19.6
2018-03-28T06:59:10.305Z,19.6
2018-03-28T07:00:00.566Z,19.7
2018-03-28T07:00:50.591Z,19.6
2018-03-28T07:01:40.683Z,19.6
2018-03-28T07:02:30.695Z,19.6
2018-03-28T07:03:21.167Z,19.7
2018-03-28T07:04:10.840Z,19.6
2018-03-28T07:05:01.121Z,19.6
2018-03-28T07:05:50.971Z,19.6
2018-03-28T07:06:41.525Z,19.6
2018-03-28T07:07:31.213Z,19.6
2018-03-28T07:08:20.943Z,19.6
2018-03-28T07:09:11.400Z,19.6
2018-03-28T07:10:01.728Z,19.6
2018-03-28T07:10:50.913Z,19.6
2018-03-28T07:11:41.867Z,19.6
2018-03-28T07:12:30.942Z,19.6
2018-03-28T07:13:22.018Z,19.6
2018-03-28T07:14:11.143Z,19.6
2018-03-28T07:15:02.392Z,19.6
2018-03-28T07:15:51.481Z,19.7
2018-03-28T07:16:41.519Z,19.6
2018-03-28T07:17:31.990Z,19.6
2018-03-28T07:18:22.125Z,19.6
2018-03-28T07:19:11.703Z,19.7
2018-03-28T07:20:02.723Z,19.6
2018-03-28T07:20:51.822Z,19.6
2018-03-28T07:21:41.779Z,18.4
2018-03-28T07:22:32.609Z,19.8
2018-03-28T07:23:22.100Z,39.3
2018-03-28T07:24:12.433Z,52.3
2018-03-28T07:25:02.164Z,53.4
2018-03-28T07:25:52.949Z,49.8
2018-03-28T07:26:42.623Z,47.8
2018-03-28T07:27:32.585Z,46.9
2018-03-28T07:28:22.755Z,46.3
2018-03-28T07:29:12.487Z,45.7
2018-03-28T07:30:02.884Z,45.1
2018-03-28T07:30:53.534Z,44.6
2018-03-28T07:31:43.095Z,44.1
2018-03-28T07:32:33.640Z,43.6
2018-03-28T07:33:22.723Z,43
2018-03-28T07:34:13.014Z,42.5
2018-03-28T07:35:03.296Z,42
2018-03-28T07:35:53.153Z,41.5
2018-03-28T07:36:43.432Z,41.1
2018-03-28T07:37:33.401Z,46.6
2018-03-28T07:38:22.876Z,50.3
2018-03-28T07:39:13.791Z,57.8
2018-03-28T07:40:03.574Z,60.9
2018-03-28T07:40:53.317Z,58.7
2018-03-28T07:41:43.198Z,54.3
2018-03-28T07:42:33.471Z,51.6
2018-03-28T07:43:23.827Z,50.3
2018-03-28T07:44:13.107Z,49.5
2018-03-28T07:45:03.757Z,48.8
2018-03-28T07:45:53.719Z,48.1
2018-03-28T07:46:43.670Z,47.6
2018-03-28T07:47:34.129Z,46.9
2018-03-28T07:48:24.469Z,46.4
2018-03-28T07:49:14.136Z,45.8
2018-03-28T07:50:04.327Z,45.3
2018-03-28T07:50:54.697Z,44.7
2018-03-28T07:51:43.436Z,44.2
2018-03-28T07:52:34.395Z,45.7
2018-03-28T07:53:24.739Z,50.9
2018-03-28T07:54:14.905Z,54.6
2018-03-28T07:55:04.486Z,60.8
2018-03-28T07:55:54.323Z,60.9
2018-03-28T07:56:45.069Z,60.1
2018-03-28T07:57:33.848Z,57.9
2018-03-28T07:58:24.711Z,55.2
2018-03-28T07:59:15.555Z,53.4
2018-03-28T08:00:04.418Z,52.3
2018-03-28T08:00:54.604Z,51.4
2018-03-28T08:01:45.137Z,50.7
2018-03-28T08:02:35.295Z,50.1
2018-03-28T08:03:25.145Z,49.3
2018-03-28T08:04:14.725Z,48.7
2018-03-28T08:05:04.980Z,48.1
2018-03-28T08:05:55.434Z,47.5
2018-03-28T08:06:45.830Z,46.9
2018-03-28T08:07:35.874Z,46.3
2018-03-28T08:08:25.338Z,45.8
2018-03-28T08:09:15.380Z,45.3
2018-03-28T08:10:05.465Z,44.7
2018-03-28T08:10:55.613Z,44.2
2018-03-28T08:11:45.305Z,43.7
2018-03-28T08:12:35.643Z,43.3
2018-03-28T08:13:25.884Z,42.8
2018-03-28T08:14:16.616Z,42.3
2018-03-28T08:15:05.212Z,41.8
2018-03-28T08:15:56.184Z,41.4
2018-03-28T08:16:46.782Z,41
2018-03-28T08:17:36.527Z,40.6
2018-03-28T08:18:26.607Z,40.1
2018-03-28T08:19:16.958Z,39.8
2018-03-28T08:20:06.997Z,39.4
2018-03-28T08:20:56.888Z,39
2018-03-28T08:21:46.865Z,38.6
2018-03-28T08:22:36.478Z,38.3
2018-03-28T08:23:26.796Z,37.9
2018-03-28T08:24:17.039Z,37.6
2018-03-28T08:25:06.815Z,37.3
2018-03-28T08:25:56.590Z,37
2018-03-28T08:26:47.239Z,36.7
2018-03-28T08:27:37.089Z,36.4
2018-03-28T08:28:27.070Z,36.1
2018-03-28T08:29:17.223Z,35.8
2018-03-28T08:30:07.158Z,35.5
2018-03-28T08:30:56.226Z,35.2
2018-03-28T08:31:47.277Z,34.9
2018-03-28T08:32:37.881Z,34.7
2018-03-28T08:33:27.408Z,34.4
2018-03-28T08:34:17.498Z,34.2
2018-03-28T08:35:07.804Z,33.9
2018-03-28T08:35:57.856Z,33.8
2018-03-28T08:36:47.926Z,33.5
2018-03-28T08:37:38.245Z,33.3
2018-03-28T08:38:28.358Z,33.1
2018-03-28T08:39:18.683Z,32.8
2018-03-28T08:40:08.431Z,32.6
2018-03-28T08:40:58.514Z,32.4
2018-03-28T08:41:47.995Z,32.2
2018-03-28T08:42:38.352Z,32
2018-03-28T08:43:28.700Z,31.8
2018-03-28T08:44:18.723Z,31.6
2018-03-28T08:45:08.532Z,31.4
2018-03-28T08:45:58.864Z,31.3
2018-03-28T08:46:48.690Z,31.1
2018-03-28T08:47:38.967Z,30.9
2018-03-28T08:48:28.281Z,30.7
2018-03-28T08:49:18.833Z,34.5
2018-03-28T08:50:08.895Z,37.2
2018-03-28T08:50:58.463Z,48.4
2018-03-28T08:51:48.521Z,55.9
2018-03-28T08:52:39.065Z,56.8
2018-03-28T08:53:29.163Z,56.3
2018-03-28T08:54:18.930Z,55.1
2018-03-28T08:55:08.856Z,53.1
2018-03-28T08:55:59.102Z,51.8
2018-03-28T08:56:48.875Z,50.8
2018-03-28T08:57:38.866Z,50.1
2018-03-28T08:58:29.494Z,49.4
2018-03-28T08:59:18.779Z,48.8
2018-03-28T09:00:09.340Z,48.1
2018-03-28T09:00:58.882Z,47.6
2018-03-28T09:01:50.226Z,46.9
2018-03-28T09:02:39.514Z,46.4
2018-03-28T09:03:29.087Z,47.8
2018-03-28T09:04:19.422Z,49.7
2018-03-28T09:05:09.804Z,54.8
2018-03-28T09:05:58.942Z,61.1
2018-03-28T09:06:49.597Z,61.2
2018-03-28T09:07:39.759Z,59.3
2018-03-28T09:09:20.323Z,56.4
2018-03-28T09:10:09.657Z,55.4
2018-03-28T09:11:00.319Z,54.6
2018-03-28T09:11:50.189Z,53.9
2018-03-28T09:12:40.519Z,53.2
2018-03-28T09:13:29.578Z,52.4
2018-03-28T09:14:19.649Z,51.8
2018-03-28T09:15:10.989Z,51.1
2018-03-28T09:16:00.462Z,50.4
2018-03-28T09:16:50.563Z,49.8
2018-03-28T09:17:40.902Z,49.1
2018-03-28T09:18:30.532Z,48.4
2018-03-28T09:19:20.753Z,47.9
2018-03-28T09:20:10.756Z,47.3
2018-03-28T09:21:00.837Z,46.7
2018-03-28T09:21:50.406Z,46.2
2018-03-28T09:22:40.387Z,45.6
2018-03-28T09:23:31.036Z,45.1
2018-03-28T09:24:20.691Z,44.6
2018-03-28T09:25:11.159Z,44.1
2018-03-28T09:26:01.505Z,43.6
2018-03-28T09:26:51.128Z,43.1
2018-03-28T09:27:41.325Z,42.6
2018-03-28T09:28:31.978Z,43.6
2018-03-28T09:29:20.925Z,45.8
2018-03-28T09:30:11.011Z,50.4
2018-03-28T09:31:01.556Z,57.2
2018-03-28T09:31:51.626Z,58.9
2018-03-28T09:32:41.203Z,58.6
2018-03-28T09:33:31.742Z,58.1
2018-03-28T09:34:21.503Z,57.1
2018-03-28T09:35:11.969Z,56
2018-03-28T09:36:02.473Z,55.1
2018-03-28T09:36:51.783Z,54.3
2018-03-28T09:37:41.236Z,53.6
2018-03-28T09:38:32.088Z,52.9
2018-03-28T09:39:21.917Z,52.2
2018-03-28T09:40:11.645Z,51.5
2018-03-28T09:41:02.095Z,50.8
2018-03-28T09:41:52.615Z,50.2
2018-03-28T09:42:42.692Z,49.5
2018-03-28T09:43:32.684Z,48.9
2018-03-28T09:44:22.134Z,48.3
2018-03-28T09:45:12.487Z,47.7
2018-03-28T09:46:02.266Z,47.1
2018-03-28T09:46:52.322Z,47.6
2018-03-28T09:47:42.297Z,48.8
2018-03-28T09:48:32.337Z,51.9
2018-03-28T09:49:22.684Z,56.8
2018-03-28T09:50:12.749Z,58.1
2018-03-28T09:51:02.325Z,57.7
2018-03-28T09:51:53.093Z,57.1
2018-03-28T09:52:43.422Z,56.1
2018-03-28T09:53:33.194Z,55.3
2018-03-28T09:54:23.294Z,54.4
2018-03-28T09:55:13.318Z,53.6
2018-03-28T09:56:03.251Z,52.9
2018-03-28T09:56:52.357Z,52.1
2018-03-28T09:57:43.216Z,51.5
2018-03-28T09:58:33.267Z,50.8
2018-03-28T09:59:24.224Z,50.1
2018-03-28T10:00:13.104Z,49.5
2018-03-28T10:01:03.636Z,48.9
2018-03-28T10:01:53.494Z,48.3
2018-03-28T10:02:43.563Z,47.7
2018-03-28T10:03:34.011Z,47.1
2018-03-28T10:04:23.202Z,46.5
2018-03-28T10:05:14.040Z,46.1
2018-03-28T10:06:03.800Z,45.5
2018-03-28T10:06:54.148Z,46.6
2018-03-28T10:07:43.948Z,47.9
2018-03-28T10:08:34.383Z,52.9
2018-03-28T10:09:24.131Z,58.5
2018-03-28T10:10:14.006Z,59.4
2018-03-28T10:11:03.406Z,58.8
2018-03-28T10:11:53.751Z,57.9
2018-03-28T10:12:44.593Z,56.3
2018-03-28T10:13:34.646Z,54.8
2018-03-28T10:14:24.105Z,53.8
2018-03-28T10:15:14.579Z,52.9
2018-03-28T10:16:04.643Z,52.3
2018-03-28T10:16:54.485Z,51.8
2018-03-28T10:17:45.140Z,51.5
2018-03-28T10:18:34.712Z,51.8
2018-03-28T10:19:25.097Z,54.4
2018-03-28T10:20:14.828Z,59.9
2018-03-28T10:21:05.198Z,62.4
2018-03-28T10:21:54.985Z,63
2018-03-28T10:22:45.624Z,63.5
2018-03-28T10:23:35.274Z,63.1
2018-03-28T10:24:25.550Z,62.1
2018-03-28T10:25:14.518Z,60.9
2018-03-28T10:26:05.574Z,60.2
2018-03-28T10:26:55.351Z,60.1
2018-03-28T10:27:45.268Z,60.9
2018-03-28T10:28:35.742Z,62
2018-03-28T10:29:25.650Z,62.9
2018-03-28T10:30:15.457Z,63.7
2018-03-28T10:31:05.655Z,63.9
2018-03-28T10:31:56.010Z,63.9
2018-03-28T10:32:46.330Z,63.5
2018-03-28T10:33:36.517Z,63.1
2018-03-28T10:34:26.175Z,62.9
2018-03-28T10:35:16.152Z,62.9
2018-03-28T10:36:05.433Z,62.9
2018-03-28T10:36:56.114Z,63
2018-03-28T10:37:46.702Z,63.1
2018-03-28T10:38:37.059Z,63.3
2018-03-28T10:39:26.551Z,63.4
2018-03-28T10:40:16.890Z,63.4
2018-03-28T10:41:06.934Z,63.4
2018-03-28T10:41:57.006Z,63.3
2018-03-28T10:42:46.782Z,63.1
2018-03-28T10:43:37.106Z,62.8
2018-03-28T10:44:27.237Z,62.5
2018-03-28T10:45:17.507Z,62.3
2018-03-28T10:46:06.761Z,62.4
2018-03-28T10:46:57.396Z,62.9
2018-03-28T10:47:46.987Z,63.6
2018-03-28T10:48:37.662Z,64.5
2018-03-28T10:49:27.292Z,65.4
2018-03-28T10:50:17.029Z,66.1
2018-03-28T10:51:07.116Z,66.6
2018-03-28T10:51:57.546Z,66.9
2018-03-28T10:52:47.233Z,67.3
2018-03-28T10:53:37.683Z,67.5
2018-03-28T10:54:27.936Z,67.7
2018-03-28T10:55:17.422Z,67
2018-03-28T10:56:07.512Z,65.4
2018-03-28T10:56:57.244Z,63.9
2018-03-28T10:57:47.976Z,62.9
2018-03-28T10:58:38.496Z,62.3
2018-03-28T10:59:28.608Z,61.7
2018-03-28T11:00:18.341Z,61.3
2018-03-28T11:01:08.674Z,60.9
2018-03-28T11:01:58.730Z,60.6
2018-03-28T11:02:48.521Z,60.1
2018-03-28T11:03:38.110Z,59.4
2018-03-28T11:04:28.022Z,58.8
2018-03-28T11:05:18.438Z,58.1
2018-03-28T11:06:08.785Z,57.4
2018-03-28T11:06:58.863Z,56.6
2018-03-28T11:07:48.948Z,55.8